Time;durP1;ratioP1;P1;durP2;ratioP2;P2;SDS_P1;SDS_P2;PMS_P1;PMS_P2;Temp;Humidity;BMP_temperature;BMP_pressure;BME280_temperature;BME280_humidity;BME280_pressure;Samples;Min_cycle;Max_cycle;Signal;HPM_P1;HPM_P2
2023/05/03 00:00:16;;;;;;;0.10;0.10;;;10.00;99.90;;;;;;5054180;28;20396;-71
2023/05/03 00:02:43;;;;;;;0.10;0.10;;;9.80;99.90;;;;;;5054508;28;20041;-71
2023/05/03 00:05:13;;;;;;;0.38;0.38;;;9.80;99.90;;;;;;5054427;28;20079;-71
2023/05/03 00:07:43;;;;;;;1.55;1.45;;;10.10;99.90;;;;;;5054303;28;20032;-71
2023/05/03 00:10:12;;;;;;;0.35;0.35;;;9.90;99.90;;;;;;5049889;28;20021;-71
2023/05/03 00:12:41;;;;;;;0.10;0.10;;;9.80;99.90;;;;;;5048979;28;20063;-71
2023/05/03 00:15:08;;;;;;;2.17;0.93;;;10.00;99.90;;;;;;5054273;28;20029;-72
2023/05/03 00:17:38;;;;;;;0.10;0.10;;;9.80;99.90;;;;;;5053897;28;20040;-72
2023/05/03 00:20:04;;;;;;;0.10;0.10;;;9.70;99.90;;;;;;5086352;28;20049;-71
2023/05/03 00:22:30;;;;;;;0.40;0.40;;;9.60;99.90;;;;;;5049587;28;20029;-71
2023/05/03 00:24:57;;;;;;;1.33;1.23;;;9.70;99.90;;;;;;5052489;28;20096;-71
2023/05/03 00:27:23;;;;;;;0.15;0.15;;;9.60;99.90;;;;;;5053635;28;20090;-72
2023/05/03 00:29:53;;;;;;;0.40;0.40;;;9.60;99.90;;;;;;5054037;28;20029;-71
2023/05/03 00:32:23;;;;;;;0.10;0.10;;;9.60;99.90;;;;;;5049538;28;20116;-72
2023/05/03 00:34:56;;;;;;;0.10;0.10;;;9.60;99.90;;;;;;5046228;28;20025;-71
2023/05/03 00:37:23;;;;;;;0.10;0.10;;;9.90;99.90;;;;;;5053757;28;20439;-71
2023/05/03 00:39:49;;;;;;;0.10;0.10;;;10.00;99.90;;;;;;5053653;28;20060;-71
2023/05/03 00:42:15;;;;;;;0.10;0.10;;;10.10;99.90;;;;;;5015830;28;20056;-72
2023/05/03 00:44:41;;;;;;;0.20;0.20;;;9.90;99.90;;;;;;5046497;28;20029;-71
2023/05/03 00:47:08;;;;;;;0.20;0.20;;;10.00;99.90;;;;;;5032403;28;20596;-71
2023/05/03 00:49:34;;;;;;;0.20;0.20;;;9.90;99.90;;;;;;5035653;28;20116;-71
2023/05/03 00:52:00;;;;;;;0.10;0.10;;;9.60;99.90;;;;;;5035619;28;20163;-71
2023/05/03 00:54:27;;;;;;;0.13;0.13;;;9.80;99.90;;;;;;5053392;28;20021;-71
2023/05/03 00:56:54;;;;;;;0.30;0.30;;;9.80;99.90;;;;;;5052947;28;20385;-71
2023/05/03 00:59:20;;;;;;;0.77;0.77;;;9.60;99.90;;;;;;5032301;28;20021;-71
2023/05/03 01:01:50;;;;;;;0.10;0.10;;;9.50;99.90;;;;;;5045791;28;20028;-71
2023/05/03 01:04:18;;;;;;;0.10;0.10;;;9.50;99.90;;;;;;5053278;28;20112;-71
2023/05/03 01:07:02;;;;;;;0.15;0.15;;;9.70;99.90;;;;;;5053449;28;20035;-71
2023/05/03 01:09:54;;;;;;;0.10;0.10;;;10.00;99.90;;;;;;5034701;28;20048;-71
2023/05/03 01:12:33;;;;;;;;;;;10.00;99.90;;;;;;5013066;28;20037;-72
2023/05/03 01:15:39;;;;;;;0.10;0.10;;;9.50;99.90;;;;;;5053239;28;19992;-72
2023/05/03 01:18:11;;;;;;;0.10;0.10;;;9.70;99.90;;;;;;5052977;28;20162;-72
2023/05/03 01:20:39;;;;;;;0.10;0.10;;;9.50;99.90;;;;;;5035299;28;20083;-71
2023/05/03 01:23:31;;;;;;;0.38;0.38;;;9.80;99.90;;;;;;5034896;28;20021;-71
2023/05/03 01:25:57;;;;;;;0.10;0.10;;;9.80;99.90;;;;;;5052541;28;20386;-71
2023/05/03 01:28:24;;;;;;;0.10;0.10;;;9.60;99.90;;;;;;5053106;28;20446;-71
2023/05/03 01:30:52;;;;;;;0.28;0.28;;;9.80;99.90;;;;;;5052987;28;20416;-71
2023/05/03 01:33:34;;;;;;;0.20;0.20;;;9.50;99.90;;;;;;5052886;28;20029;-71
2023/05/03 01:36:31;;;;;;;0.10;0.10;;;9.40;99.90;;;;;;5034751;28;20497;-71
2023/05/03 01:38:59;;;;;;;0.35;0.32;;;9.00;99.90;;;;;;5034124;28;20047;-71
2023/05/03 01:41:26;;;;;;;0.20;0.20;;;9.00;99.90;;;;;;5052627;28;20029;-72
2023/05/03 01:43:54;;;;;;;0.10;0.10;;;9.20;99.90;;;;;;5052929;28;20167;-71
2023/05/03 01:46:21;;;;;;;3.20;1.75;;;9.10;99.90;;;;;;5047765;28;20025;-71
2023/05/03 01:48:47;;;;;;;0.17;0.17;;;8.90;99.90;;;;;;5046402;28;20477;-71
2023/05/03 01:51:12;;;;;;;0.10;0.10;;;8.80;99.90;;;;;;5038759;28;20033;-71
2023/05/03 01:53:40;;;;;;;0.43;0.40;;;8.90;99.90;;;;;;5049382;28;20515;-71
2023/05/03 01:56:07;;;;;;;0.20;0.20;;;8.90;99.90;;;;;;5047456;28;20437;-71
2023/05/03 01:58:33;;;;;;;0.20;0.20;;;8.90;99.90;;;;;;5046395;28;20021;-71
2023/05/03 02:00:59;;;;;;;0.43;0.43;;;8.90;99.90;;;;;;5051158;28;20051;-71
2023/05/03 02:03:25;;;;;;;0.10;0.10;;;8.90;99.90;;;;;;5057033;28;20492;-72
2023/05/03 02:05:50;;;;;;;0.10;0.10;;;8.80;99.90;;;;;;5058841;28;20355;-71
2023/05/03 02:08:16;;;;;;;0.38;0.32;;;8.70;99.90;;;;;;5054652;28;20026;-71
2023/05/03 02:10:45;;;;;;;0.10;0.10;;;8.50;99.90;;;;;;5047417;28;20029;-71
2023/05/03 02:13:11;;;;;;;0.10;0.10;;;8.70;99.90;;;;;;5058683;28;20039;-71
2023/05/03 02:15:37;;;;;;;0.63;0.25;;;8.90;99.90;;;;;;5054488;28;20017;-71
2023/05/03 02:18:03;;;;;;;0.13;0.13;;;9.00;99.90;;;;;;5051869;28;20486;-71
2023/05/03 02:20:34;;;;;;;0.20;0.20;;;9.00;99.90;;;;;;5060751;28;20022;-71
2023/05/03 02:23:00;;;;;;;0.10;0.10;;;8.70;99.90;;;;;;5052775;28;20549;-71
2023/05/03 02:25:26;;;;;;;0.10;0.10;;;8.80;99.90;;;;;;5054379;28;20288;-71
2023/05/03 02:27:51;;;;;;;0.10;0.10;;;8.80;99.90;;;;;;5051974;28;20033;-71
2023/05/03 02:30:18;;;;;;;1.85;0.30;;;8.80;99.90;;;;;;5054306;28;20017;-71
2023/05/03 02:32:44;;;;;;;0.30;0.28;;;8.70;99.90;;;;;;5046841;28;20022;-71
2023/05/03 02:35:10;;;;;;;0.20;0.20;;;8.60;99.90;;;;;;5057385;28;20064;-71
2023/05/03 02:37:36;;;;;;;0.32;0.32;;;8.40;99.90;;;;;;5053959;28;20064;-71
2023/05/03 02:40:08;;;;;;;0.70;0.70;;;8.50;99.90;;;;;;5054755;28;20021;-71
2023/05/03 02:42:34;;;;;;;0.80;0.80;;;8.40;99.90;;;;;;5054222;28;20037;-71
2023/05/03 02:45:00;;;;;;;0.10;0.10;;;8.40;99.90;;;;;;5053078;28;20025;-72
2023/05/03 02:47:28;;;;;;;0.28;0.28;;;8.80;99.90;;;;;;5056311;28;20029;-71
2023/05/03 02:49:54;;;;;;;0.10;0.10;;;8.60;99.90;;;;;;5054200;28;20432;-71
2023/05/03 02:52:21;;;;;;;0.13;0.13;;;8.40;99.90;;;;;;5047086;28;20437;-70
2023/05/03 02:54:48;;;;;;;0.10;0.10;;;7.90;99.90;;;;;;5054506;28;20055;-71
2023/05/03 02:57:14;;;;;;;0.35;0.35;;;7.90;99.90;;;;;;5054619;28;20406;-71
2023/05/03 02:59:41;;;;;;;1.60;1.05;;;7.90;99.90;;;;;;5054228;28;20091;-71
2023/05/03 03:02:06;;;;;;;0.10;0.10;;;7.90;99.90;;;;;;5050548;28;20029;-71
2023/05/03 03:04:33;;;;;;;0.47;0.47;;;7.90;99.90;;;;;;5058206;28;20028;-71
2023/05/03 03:06:59;;;;;;;0.10;0.10;;;8.00;99.90;;;;;;5037257;28;20044;-71
2023/05/03 03:09:25;;;;;;;0.45;0.45;;;8.00;99.90;;;;;;5057266;28;20452;-71
2023/05/03 03:11:52;;;;;;;0.10;0.10;;;8.10;99.90;;;;;;5054131;28;20030;-71
2023/05/03 03:14:18;;;;;;;0.30;0.30;;;8.10;99.90;;;;;;5049581;28;20028;-71
2023/05/03 03:16:50;;;;;;;0.10;0.10;;;7.90;99.90;;;;;;5050695;28;20026;-71
2023/05/03 03:19:16;;;;;;;0.63;0.63;;;7.90;99.90;;;;;;5049407;28;20036;-71
2023/05/03 03:21:42;;;;;;;0.55;0.55;;;8.00;99.90;;;;;;5050719;28;20444;-71
2023/05/03 03:24:08;;;;;;;0.40;0.40;;;8.00;99.90;;;;;;5042468;28;20394;-72
2023/05/03 03:26:34;;;;;;;0.20;0.20;;;8.10;99.90;;;;;;5052561;28;20021;-71
2023/05/03 03:29:00;;;;;;;0.10;0.10;;;8.10;99.90;;;;;;5034053;28;20462;-71
2023/05/03 03:31:27;;;;;;;0.10;0.10;;;8.00;99.90;;;;;;5083099;28;20033;-71
2023/05/03 03:33:55;;;;;;;0.10;0.10;;;8.20;99.90;;;;;;5050557;28;20028;-71
2023/05/03 03:36:25;;;;;;;0.10;0.10;;;8.10;99.90;;;;;;5049130;28;20039;-72
2023/05/03 03:38:51;;;;;;;0.10;0.10;;;7.90;99.90;;;;;;5053800;28;20024;-71
2023/05/03 03:41:18;;;;;;;0.10;0.10;;;7.80;99.90;;;;;;5033836;28;20442;-71
2023/05/03 03:43:45;;;;;;;0.10;0.10;;;7.70;99.90;;;;;;5035940;28;20048;-71
2023/05/03 03:46:16;;;;;;;0.10;0.10;;;7.50;99.90;;;;;;5034100;28;20022;-70
2023/05/03 03:48:42;;;;;;;0.20;0.20;;;7.50;99.90;;;;;;5034435;28;20477;-71
2023/05/03 03:51:08;;;;;;;0.10;0.10;;;7.50;99.90;;;;;;5033494;28;20029;-71
2023/05/03 03:53:41;;;;;;;0.10;0.10;;;7.50;99.90;;;;;;5033492;28;20075;-71
2023/05/03 03:56:07;;;;;;;0.10;0.10;;;7.60;99.90;;;;;;5033417;28;20023;-71
2023/05/03 03:58:33;;;;;;;0.20;0.20;;;7.60;99.90;;;;;;5030621;28;20051;-71
2023/05/03 04:01:01;;;;;;;0.20;0.20;;;7.50;99.90;;;;;;5033485;28;20025;-71
2023/05/03 04:03:28;;;;;;;0.10;0.10;;;7.50;99.90;;;;;;5029060;28;20036;-71
2023/05/03 04:05:54;;;;;;;0.10;0.10;;;7.60;99.90;;;;;;5033000;28;20022;-71
2023/05/03 04:08:21;;;;;;;0.13;0.13;;;7.90;99.90;;;;;;5010979;28;20056;-71
2023/05/03 04:10:47;;;;;;;0.10;0.10;;;7.90;99.90;;;;;;5018986;28;20021;-71
2023/05/03 04:13:13;;;;;;;21.40;8.20;;;7.70;99.90;;;;;;5032416;28;20037;-72
2023/05/03 04:15:39;;;;;;;0.28;0.28;;;7.70;99.90;;;;;;5030615;28;20024;-71
2023/05/03 04:18:06;;;;;;;0.20;0.20;;;7.90;99.90;;;;;;5032862;28;20029;-71
2023/05/03 04:20:35;;;;;;;0.50;0.50;;;7.80;99.90;;;;;;5013147;28;20112;-71
2023/05/03 04:23:02;;;;;;;0.10;0.10;;;7.80;99.90;;;;;;5035793;28;20110;-72
2023/05/03 04:25:30;;;;;;;0.10;0.10;;;7.90;99.90;;;;;;5032558;28;20491;-71
2023/05/03 04:28:05;;;;;;;0.75;0.75;;;7.80;99.90;;;;;;5035317;28;20013;-71
2023/05/03 04:30:34;;;;;;;0.40;0.40;;;7.80;99.90;;;;;;5032914;28;20112;-72
2023/05/03 04:33:02;;;;;;;0.10;0.10;;;7.80;99.90;;;;;;5033593;28;20051;-71
2023/05/03 04:35:29;;;;;;;0.20;0.20;;;7.80;99.90;;;;;;5032485;28;20052;-71
2023/05/03 04:37:57;;;;;;;0.10;0.10;;;7.90;99.90;;;;;;5032210;28;20033;-71
2023/05/03 04:40:25;;;;;;;0.10;0.10;;;8.00;99.90;;;;;;5044821;28;20037;-71
2023/05/03 04:42:59;;;;;;;0.10;0.10;;;8.20;99.90;;;;;;5048063;28;20033;-72
2023/05/03 04:45:28;;;;;;;0.10;0.10;;;8.30;99.90;;;;;;5033166;28;20028;-72
2023/05/03 04:47:56;;;;;;;0.10;0.10;;;8.60;99.90;;;;;;5046533;28;20017;-71
2023/05/03 04:50:22;;;;;;;0.10;0.10;;;8.40;99.90;;;;;;5032488;28;20029;-71
2023/05/03 04:52:50;;;;;;;0.10;0.10;;;8.10;99.90;;;;;;5044941;28;20025;-71
2023/05/03 04:55:17;;;;;;;0.10;0.10;;;8.10;99.90;;;;;;5049431;28;20025;-71
2023/05/03 04:57:43;;;;;;;0.10;0.10;;;8.50;99.90;;;;;;5032332;28;20029;-72
2023/05/03 05:00:12;;;;;;;0.10;0.10;;;8.50;99.90;;;;;;5045601;28;20024;-72
2023/05/03 05:02:42;;;;;;;0.20;0.20;;;8.60;99.90;;;;;;5048562;28;20033;-71
2023/05/03 05:05:09;;;;;;;0.10;0.10;;;8.70;99.90;;;;;;5041038;28;20228;-71
2023/05/03 05:07:35;;;;;;;0.10;0.10;;;8.50;99.90;;;;;;5046861;28;20029;-71
2023/05/03 05:10:01;;;;;;;0.10;0.10;;;8.40;99.90;;;;;;5075800;28;20029;-71
2023/05/03 05:12:28;;;;;;;2.50;1.15;;;8.60;99.90;;;;;;5051135;28;20059;-71
2023/05/03 05:14:54;;;;;;;0.20;0.20;;;8.60;99.90;;;;;;5053310;28;20029;-71
2023/05/03 05:17:20;;;;;;;0.10;0.10;;;8.50;99.90;;;;;;5048572;28;20068;-71
2023/05/03 05:19:47;;;;;;;0.10;0.10;;;8.50;99.90;;;;;;5048134;28;20025;-71
2023/05/03 05:22:12;;;;;;;0.10;0.10;;;8.40;99.90;;;;;;5044680;28;20469;-71
2023/05/03 05:24:44;;;;;;;1.30;0.60;;;8.60;99.90;;;;;;5048311;28;20032;-71
2023/05/03 05:27:12;;;;;;;0.20;0.20;;;8.50;99.90;;;;;;5051832;28;20562;-70
2023/05/03 05:29:38;;;;;;;0.70;0.55;;;8.50;99.90;;;;;;5051409;28;20386;-71
2023/05/03 05:32:04;;;;;;;1.27;0.52;;;8.70;99.90;;;;;;5030762;28;20039;-71
2023/05/03 05:34:31;;;;;;;1.95;1.85;;;8.60;99.90;;;;;;5036480;28;20477;-71
2023/05/03 05:36:59;;;;;;;0.30;0.30;;;8.90;99.90;;;;;;5052563;28;20489;-71
2023/05/03 05:39:25;;;;;;;0.65;0.65;;;8.60;99.90;;;;;;5060377;28;20814;-71
2023/05/03 05:41:51;;;;;;;0.10;0.10;;;8.80;99.90;;;;;;5054994;28;20192;-71
2023/05/03 05:44:17;;;;;;;0.40;0.25;;;8.80;99.90;;;;;;5056658;28;20033;-71
2023/05/03 05:46:45;;;;;;;0.60;0.60;;;8.70;99.90;;;;;;5033767;28;20028;-71
2023/05/03 05:49:12;;;;;;;4.75;0.93;;;8.70;99.90;;;;;;5061379;28;20033;-71
2023/05/03 05:51:38;;;;;;;0.40;0.40;;;8.70;99.90;;;;;;5061849;28;20041;-70
2023/05/03 05:54:04;;;;;;;0.15;0.15;;;8.70;99.90;;;;;;5039876;28;20032;-71
2023/05/03 05:56:30;;;;;;;2.75;0.70;;;8.80;99.90;;;;;;5056886;28;20119;-71
2023/05/03 05:58:56;;;;;;;0.30;0.30;;;8.90;99.90;;;;;;5057950;28;20115;-70
2023/05/03 06:01:25;;;;;;;0.70;0.70;;;9.00;99.90;;;;;;5052010;28;20021;-71
2023/05/03 06:03:51;;;;;;;0.10;0.10;;;9.00;99.90;;;;;;5065394;28;20111;-71
2023/05/03 06:06:18;;;;;;;0.20;0.20;;;8.90;99.90;;;;;;5063942;28;20013;-71
2023/05/03 06:08:48;;;;;;;2.30;0.82;;;8.90;99.90;;;;;;5062545;28;20028;-71
2023/05/03 06:11:14;;;;;;;0.20;0.20;;;8.90;99.90;;;;;;5054023;28;20385;-70
2023/05/03 06:13:41;;;;;;;1.25;0.98;;;8.90;99.90;;;;;;5052733;28;20461;-71
2023/05/03 06:16:09;;;;;;;0.52;0.52;;;8.90;99.90;;;;;;5063918;28;20104;-70
2023/05/03 06:18:35;;;;;;;1.33;0.60;;;9.10;99.90;;;;;;5064256;28;20032;-71
2023/05/03 06:21:01;;;;;;;0.22;0.22;;;9.20;99.90;;;;;;5054753;28;20044;-70
2023/05/03 06:23:27;;;;;;;0.45;0.45;;;9.20;99.90;;;;;;5051264;28;20083;-71
2023/05/03 06:25:54;;;;;;;1.45;1.20;;;9.30;99.90;;;;;;5033974;28;20071;-70
2023/05/03 06:28:21;;;;;;;0.10;0.10;;;9.10;99.90;;;;;;5057912;28;20479;-70
2023/05/03 06:30:51;;;;;;;0.82;0.73;;;9.20;99.90;;;;;;5045691;28;20029;-71
2023/05/03 06:33:17;;;;;;;1.67;0.98;;;9.30;99.90;;;;;;5054485;28;20033;-70
2023/05/03 06:35:48;;;;;;;2.05;1.85;;;9.40;99.90;;;;;;5047462;28;20084;-70
2023/05/03 06:38:16;;;;;;;0.20;0.20;;;9.40;99.90;;;;;;5066972;28;20037;-71
2023/05/03 06:40:44;;;;;;;0.75;0.70;;;9.60;99.90;;;;;;5062749;28;20024;-71
2023/05/03 06:43:10;;;;;;;0.10;0.10;;;9.50;99.90;;;;;;5057060;28;20090;-70
2023/05/03 06:45:43;;;;;;;0.60;0.60;;;9.60;99.90;;;;;;5051762;28;20021;-71
2023/05/03 06:48:09;;;;;;;4.15;1.55;;;9.80;99.90;;;;;;5036831;28;20438;-70
2023/05/03 06:50:35;;;;;;;0.30;0.30;;;9.80;99.90;;;;;;5064706;28;20033;-70
2023/05/03 06:53:01;;;;;;;0.32;0.32;;;9.90;99.90;;;;;;5061575;28;20102;-69
2023/05/03 06:55:27;;;;;;;0.20;0.20;;;10.20;99.90;;;;;;5060764;28;20529;-70
2023/05/03 06:57:53;;;;;;;7.57;0.57;;;10.20;99.90;;;;;;5062065;28;20124;-71
2023/05/03 07:00:21;;;;;;;0.15;0.15;;;10.10;99.90;;;;;;5059543;28;20018;-71
2023/05/03 07:02:47;;;;;;;0.40;0.40;;;10.30;99.90;;;;;;5061094;28;20024;-70
2023/05/03 07:05:13;;;;;;;0.30;0.30;;;10.40;99.90;;;;;;5072101;28;20043;-70
2023/05/03 07:07:39;;;;;;;1.85;1.30;;;10.60;99.90;;;;;;5065140;28;20474;-71
2023/05/03 07:10:06;;;;;;;0.93;0.63;;;10.70;99.90;;;;;;5061902;28;20112;-71
2023/05/03 07:12:31;;;;;;;0.45;0.45;;;10.60;99.90;;;;;;5059173;28;20020;-70
2023/05/03 07:14:57;;;;;;;1.77;1.05;;;10.80;99.90;;;;;;5062162;28;20037;-70
2023/05/03 07:17:24;;;;;;;0.45;0.43;;;10.90;99.90;;;;;;5068699;28;20044;-70
2023/05/03 07:19:50;;;;;;;0.30;0.30;;;10.80;99.90;;;;;;5062636;28;20116;-71
2023/05/03 07:22:17;;;;;;;0.55;0.55;;;10.90;99.90;;;;;;5060011;28;20032;-70
2023/05/03 07:24:43;;;;;;;0.40;0.40;;;11.20;99.90;;;;;;5055568;28;20056;-71
2023/05/03 07:27:09;;;;;;;2.00;1.85;;;11.40;99.90;;;;;;5063743;28;20059;-70
2023/05/03 07:29:35;;;;;;;0.95;0.95;;;11.50;99.90;;;;;;5066778;28;20465;-71
2023/05/03 07:32:00;;;;;;;4.85;1.55;;;11.30;99.90;;;;;;5058043;28;20036;-70
2023/05/03 07:34:26;;;;;;;0.22;0.22;;;11.40;99.90;;;;;;5061416;28;20041;-70
2023/05/03 07:36:52;;;;;;;1.75;0.88;;;11.20;99.90;;;;;;5061141;28;20060;-70
2023/05/03 07:39:18;;;;;;;3.72;1.45;;;11.20;99.90;;;;;;5071712;28;20085;-70
2023/05/03 07:41:44;;;;;;;0.98;0.80;;;11.40;99.90;;;;;;5063514;28;20017;-71
2023/05/03 07:44:10;;;;;;;2.28;1.45;;;11.40;99.90;;;;;;5059870;28;20428;-71
2023/05/03 07:46:35;;;;;;;0.10;0.10;;;11.70;99.90;;;;;;5058057;28;20032;-71
2023/05/03 07:49:03;;;;;;;1.40;0.70;;;11.80;99.90;;;;;;5062398;28;20468;-71
2023/05/03 07:51:30;;;;;;;0.63;0.40;;;12.20;99.90;;;;;;5051192;28;20036;-70
2023/05/03 07:53:56;;;;;;;0.10;0.10;;;12.40;99.90;;;;;;5062345;28;20448;-71
2023/05/03 07:56:22;;;;;;;5.25;1.58;;;12.70;99.90;;;;;;5062366;28;20068;-71
2023/05/03 07:58:48;;;;;;;0.88;0.88;;;12.70;99.50;;;;;;5061894;28;20052;-71
2023/05/03 08:01:15;;;;;;;0.43;0.43;;;12.80;99.60;;;;;;5037371;28;20063;-71
2023/05/03 08:03:42;;;;;;;0.17;0.17;;;12.70;99.90;;;;;;5067509;28;20033;-71
2023/05/03 08:06:11;;;;;;;0.85;0.35;;;12.90;99.80;;;;;;5065958;28;20020;-71
2023/05/03 08:08:37;;;;;;;0.20;0.20;;;13.00;99.40;;;;;;5065323;28;20032;-71
2023/05/03 08:11:03;;;;;;;0.10;0.10;;;13.10;99.10;;;;;;5058039;28;20063;-71
2023/05/03 08:13:28;;;;;;;0.10;0.10;;;13.30;99.10;;;;;;5054997;28;20099;-71
2023/05/03 08:15:54;;;;;;;0.10;0.10;;;13.70;99.10;;;;;;5040912;28;20028;-71
2023/05/03 08:18:20;;;;;;;3.45;0.85;;;13.80;98.80;;;;;;5056433;28;20473;-71
2023/05/03 08:20:46;;;;;;;1.08;0.82;;;13.70;97.30;;;;;;5058764;28;20031;-70
2023/05/03 08:23:12;;;;;;;0.57;0.57;;;13.50;98.80;;;;;;5056379;28;20489;-71
2023/05/03 08:25:38;;;;;;;0.10;0.10;;;13.80;98.00;;;;;;5053788;28;20385;-71
2023/05/03 08:28:04;;;;;;;5.10;4.57;;;14.00;97.50;;;;;;5057916;28;20013;-71
2023/05/03 08:30:30;;;;;;;0.52;0.43;;;13.80;96.30;;;;;;5058503;28;20362;-71
2023/05/03 08:32:55;;;;;;;1.20;0.82;;;13.90;97.60;;;;;;5039702;28;20417;-71
2023/05/03 08:35:22;;;;;;;0.17;0.17;;;13.80;97.00;;;;;;5055217;28;20056;-71
2023/05/03 08:37:47;;;;;;;9.43;1.80;;;13.90;96.80;;;;;;5059222;28;20032;-70
2023/05/03 08:40:14;;;;;;;1.10;1.05;;;14.00;95.40;;;;;;5057597;28;20501;-70
2023/05/03 08:42:44;;;;;;;0.17;0.17;;;14.10;96.30;;;;;;5058507;28;20423;-72
2023/05/03 08:45:13;;;;;;;0.95;0.75;;;14.30;96.00;;;;;;5057009;28;20454;-72
2023/05/03 08:47:40;;;;;;;5.30;2.25;;;14.30;96.10;;;;;;5060761;28;20037;-72
2023/05/03 08:50:08;;;;;;;3.00;1.00;;;14.20;94.90;;;;;;5058789;28;20017;-72
2023/05/03 08:52:34;;;;;;;0.80;0.75;;;13.90;95.70;;;;;;5032346;28;20040;-70
2023/05/03 08:55:00;;;;;;;2.08;1.08;;;14.00;96.10;;;;;;5059311;28;20036;-72
2023/05/03 08:57:27;;;;;;;7.80;2.45;;;14.40;95.40;;;;;;5041655;28;20051;-72
2023/05/03 08:59:57;;;;;;;0.55;0.55;;;14.50;95.10;;;;;;5036274;28;20037;-72
2023/05/03 09:02:23;;;;;;;0.65;0.45;;;14.50;94.80;;;;;;5057399;28;20033;-72
2023/05/03 09:04:49;;;;;;;0.20;0.20;;;14.70;95.20;;;;;;5051804;28;20032;-72
2023/05/03 09:07:15;;;;;;;0.75;0.75;;;14.90;95.00;;;;;;5065624;28;20115;-72
2023/05/03 09:09:42;;;;;;;0.22;0.22;;;15.30;94.90;;;;;;5058563;28;20036;-72
2023/05/03 09:12:08;;;;;;;1.00;0.43;;;15.40;94.10;;;;;;5056363;28;20029;-72
2023/05/03 09:14:45;;;;;;;0.10;0.10;;;15.70;94.50;;;;;;5056677;28;20021;-72
2023/05/03 09:17:16;;;;;;;0.43;0.43;;;15.60;94.00;;;;;;5065024;28;20079;-72
2023/05/03 09:19:53;;;;;;;0.32;0.32;;;15.40;93.20;;;;;;5057868;28;20033;-72
2023/05/03 09:22:21;;;;;;;0.68;0.68;;;15.60;94.40;;;;;;5055956;28;20041;-72
2023/05/03 09:24:57;;;;;;;0.20;0.20;;;15.80;93.50;;;;;;5051857;28;20083;-72
2023/05/03 09:27:24;;;;;;;0.30;0.30;;;16.10;93.20;;;;;;5062239;28;20028;-72
2023/05/03 09:29:51;;;;;;;0.13;0.13;;;16.30;93.70;;;;;;5059643;28;20333;-72
2023/05/03 09:32:18;;;;;;;1.80;1.67;;;16.20;93.50;;;;;;5057965;28;20359;-72
2023/05/03 09:34:44;;;;;;;0.22;0.22;;;16.10;93.60;;;;;;5056285;28;20100;-72
2023/05/03 09:37:13;;;;;;;0.20;0.20;;;16.40;93.60;;;;;;5057433;28;20029;-72
2023/05/03 09:39:40;;;;;;;0.00;0.00;;;16.50;93.20;;;;;;5054353;28;20028;-72
2023/05/03 09:42:19;;;;;;;0.55;0.55;;;16.50;93.10;;;;;;5052428;28;20025;-72
2023/05/03 09:44:51;;;;;;;0.20;0.20;;;16.50;93.50;;;;;;5059550;28;20028;-73
2023/05/03 09:47:17;;;;;;;0.28;0.28;;;16.80;92.20;;;;;;5053279;28;20071;-72
2023/05/03 09:49:43;;;;;;;0.52;0.52;;;16.50;92.50;;;;;;5056240;28;20108;-72
2023/05/03 09:52:10;;;;;;;0.98;0.98;;;16.50;92.30;;;;;;5055022;28;20059;-74
2023/05/03 09:54:37;;;;;;;0.15;0.15;;;16.50;92.20;;;;;;5063060;28;20546;-73
2023/05/03 09:57:04;;;;;;;0.95;0.90;;;16.70;93.00;;;;;;5058456;28;20044;-71
2023/05/03 09:59:38;;;;;;;0.35;0.35;;;16.70;92.40;;;;;;5057189;28;20079;-72
2023/05/03 10:02:06;;;;;;;0.77;0.77;;;16.90;91.80;;;;;;5036097;28;20087;-71
2023/05/03 10:04:46;;;;;;;3.08;0.80;;;16.80;91.70;;;;;;5069248;28;20099;-72
2023/05/03 10:07:16;;;;;;;0.20;0.20;;;16.70;93.10;;;;;;5057641;28;20036;-74
2023/05/03 10:09:44;;;;;;;0.47;0.43;;;17.30;92.40;;;;;;5058189;28;20079;-73
2023/05/03 10:12:11;;;;;;;0.10;0.10;;;17.50;91.20;;;;;;5038768;28;20031;-72
2023/05/03 10:14:42;;;;;;;0.47;0.47;;;17.50;91.80;;;;;;5056857;28;20052;-73
2023/05/03 10:17:15;;;;;;;0.90;0.60;;;18.00;91.60;;;;;;5034377;28;20106;-73
2023/05/03 10:19:51;;;;;;;0.30;0.30;;;17.60;91.40;;;;;;5052648;28;20029;-73
2023/05/03 10:22:17;;;;;;;0.20;0.20;;;17.60;91.40;;;;;;5057974;28;20385;-72
2023/05/03 10:25:01;;;;;;;0.30;0.30;;;17.30;91.40;;;;;;5055518;28;20028;-72
2023/05/03 10:27:46;;;;;;;0.15;0.15;;;17.80;91.20;;;;;;5060905;28;20028;-72
2023/05/03 10:30:32;;;;;;;0.28;0.28;;;18.20;91.30;;;;;;5058885;28;20383;-72
2023/05/03 10:32:59;;;;;;;1.13;0.55;;;18.20;90.50;;;;;;5055143;28;20041;-72
2023/05/03 10:35:26;;;;;;;0.30;0.30;;;18.20;89.60;;;;;;5057641;28;20071;-72
2023/05/03 10:37:53;;;;;;;0.20;0.20;;;18.40;91.50;;;;;;5044170;28;20159;-72
2023/05/03 10:40:21;;;;;;;0.57;0.57;;;18.90;90.00;;;;;;5055470;28;20048;-72
2023/05/03 10:42:53;;;;;;;1.42;1.25;;;19.00;89.10;;;;;;5060234;28;20028;-72
2023/05/03 10:45:21;;;;;;;0.05;0.05;;;18.70;89.40;;;;;;5051653;28;20045;-73
2023/05/03 10:48:15;;;;;;;0.45;0.45;;;18.80;89.00;;;;;;5056410;28;20037;-72
2023/05/03 10:50:41;;;;;;;0.20;0.20;;;18.50;87.50;;;;;;5051392;28;20072;-72
2023/05/03 10:53:27;;;;;;;0.93;0.93;;;18.60;90.10;;;;;;5056228;28;20078;-72
2023/05/03 10:56:03;;;;;;;0.57;0.57;;;18.90;88.70;;;;;;5060652;28;20017;-72
2023/05/03 10:58:34;;;;;;;0.43;0.43;;;19.00;87.10;;;;;;5052601;28;20071;-73
2023/05/03 11:01:01;;;;;;;0.30;0.30;;;18.70;88.40;;;;;;5044282;28;20500;-73
2023/05/03 11:03:45;;;;;;;1.25;0.47;;;18.90;89.30;;;;;;5055733;28;20057;-73
2023/05/03 11:06:35;;;;;;;0.20;0.20;;;19.40;87.50;;;;;;5050559;28;20028;-72
2023/05/03 11:09:04;;;;;;;0.00;0.00;;;19.80;86.60;;;;;;5051516;28;20032;-73
2023/05/03 11:11:30;;;;;;;2.53;1.35;;;19.40;88.70;;;;;;5055402;28;20048;-73
2023/05/03 11:13:56;;;;;;;1.45;0.55;;;19.20;88.40;;;;;;5055497;28;20040;-72
2023/05/03 11:16:22;;;;;;;0.32;0.32;;;19.40;87.30;;;;;;5050719;28;20031;-72
2023/05/03 11:18:49;;;;;;;0.17;0.17;;;19.70;86.60;;;;;;5043561;28;20116;-70
2023/05/03 11:21:15;;;;;;;0.25;0.25;;;19.80;85.20;;;;;;5053768;28;20059;-70
2023/05/03 11:23:42;;;;;;;1.85;0.57;;;19.90;86.20;;;;;;5055252;28;20061;-71
2023/05/03 11:26:08;;;;;;;0.75;0.65;;;19.80;85.30;;;;;;5053416;28;20056;-73
2023/05/03 11:28:41;;;;;;;0.77;0.22;;;19.50;87.40;;;;;;5055113;28;20071;-71
2023/05/03 11:31:12;;;;;;;3.15;1.65;;;19.80;85.60;;;;;;5055135;28;20037;-71
2023/05/03 11:33:39;;;;;;;0.47;0.47;;;19.60;87.00;;;;;;5055166;28;20029;-70
2023/05/03 11:36:08;;;;;;;0.28;0.20;;;19.80;87.50;;;;;;5053562;28;20025;-71
2023/05/03 11:38:35;;;;;;;2.40;1.73;;;20.10;86.00;;;;;;5054128;28;20094;-71
2023/05/03 11:41:15;;;;;;;0.57;0.38;;;19.50;83.70;;;;;;5054738;28;20109;-72
2023/05/03 11:43:45;;;;;;;6.38;0.47;;;19.40;85.10;;;;;;5054911;28;20037;-71
2023/05/03 11:46:20;;;;;;;0.08;0.05;;;19.90;86.40;;;;;;5054760;28;20032;-71
2023/05/03 11:48:46;;;;;;;1.58;1.48;;;20.20;84.40;;;;;;5033280;28;20091;-71
2023/05/03 11:51:12;;;;;;;3.10;0.55;;;20.10;83.90;;;;;;5048129;28;20029;-71
2023/05/03 11:53:40;;;;;;;0.82;0.63;;;20.40;86.20;;;;;;5054588;28;20033;-71
2023/05/03 11:56:08;;;;;;;0.10;0.10;;;20.40;85.70;;;;;;5054711;28;20028;-71
2023/05/03 11:58:34;;;;;;;4.95;0.95;;;20.60;83.40;;;;;;5054555;28;20037;-71
2023/05/03 12:01:00;;;;;;;16.52;0.90;;;20.90;83.70;;;;;;5054549;28;20100;-71
2023/05/03 12:03:28;;;;;;;0.15;0.15;;;20.80;85.20;;;;;;5054095;28;20470;-72
2023/05/03 12:05:55;;;;;;;2.45;0.73;;;20.20;84.50;;;;;;5054528;28;20021;-72
2023/05/03 12:08:29;;;;;;;0.40;0.40;;;20.60;83.60;;;;;;5054344;28;20366;-71
2023/05/03 12:10:55;;;;;;;0.10;0.10;;;21.20;84.60;;;;;;5036601;28;20099;-72
2023/05/03 12:13:35;;;;;;;1.45;1.23;;;21.40;82.90;;;;;;5054475;28;20052;-72
2023/05/03 12:16:03;;;;;;;1.98;1.55;;;21.70;83.00;;;;;;5054145;28;20079;-72
2023/05/03 12:18:51;;;;;;;0.30;0.30;;;22.00;81.80;;;;;;5036228;28;20400;-71
2023/05/03 12:21:22;;;;;;;0.17;0.17;;;21.70;83.10;;;;;;5054342;28;20040;-72
2023/05/03 12:23:48;;;;;;;0.10;0.10;;;21.60;82.80;;;;;;5054066;28;20025;-71
2023/05/03 12:26:16;;;;;;;0.10;0.10;;;22.20;82.70;;;;;;5054056;28;20024;-72
2023/05/03 12:28:42;;;;;;;0.20;0.20;;;22.10;82.50;;;;;;5054161;28;20040;-72
2023/05/03 12:31:07;;;;;;;0.10;0.10;;;22.80;82.20;;;;;;5053933;28;20119;-71
2023/05/03 12:33:33;;;;;;;2.30;1.65;;;23.20;81.30;;;;;;5032546;28;20079;-71
2023/05/03 12:36:00;;;;;;;1.70;1.05;;;22.90;80.50;;;;;;5047902;28;20083;-72
2023/05/03 12:38:26;;;;;;;1.55;1.02;;;23.30;79.30;;;;;;5053764;28;20044;-72
2023/05/03 12:40:53;;;;;;;0.63;0.63;;;23.10;79.30;;;;;;5054200;28;20040;-72
2023/05/03 12:43:18;;;;;;;2.20;0.80;;;23.10;77.90;;;;;;5053471;28;20025;-72
2023/05/03 12:45:44;;;;;;;1.45;0.40;;;22.80;79.20;;;;;;5036409;28;20488;-71
2023/05/03 12:48:11;;;;;;;1.85;1.27;;;22.30;80.20;;;;;;5034125;28;20037;-72
2023/05/03 12:50:37;;;;;;;1.05;0.95;;;22.70;78.50;;;;;;5053558;28;20108;-71
2023/05/03 12:53:03;;;;;;;0.38;0.38;;;22.90;79.00;;;;;;5053345;28;20128;-71
2023/05/03 12:55:33;;;;;;;0.43;0.43;;;23.20;79.90;;;;;;5053244;28;20017;-72
2023/05/03 12:58:00;;;;;;;4.78;1.13;;;24.10;75.90;;;;;;5053459;28;20051;-71